PWSweather.com
Personal Weather Stations
Station Observations
SUBOTICARS
SuboticaYU

SuboticaYU

Lat: 46.1296717, Lon: 19.641551

Elevation: 361

Station Type: Nexus

http://sumeteo.info

High Low Average
Temperature 73.2°F22.9°C 30.7°F-0.7°C 52.8°F11.6°C
Dew Point 36.7°F2.6°C 18.4°F-7.6°C 27.0°F-2.8°C
Winds 6.9 mph 11.1 kmh Calm Calm 2.0 mph S3.2 kmh S
Wind Gusts 10.4 mph16.7 kmh -- 2.0 mph3.2 kmh
Humidity 62% 25% 40%
Pressure 29.82 in1009.8 mb 29.64 in1003.7 mb -
Precipitation 0.00 in0.0 mm - -
Hour Temp Dew Point Humidity Winds Wind Gusts Pressure Precip Precip Rate Daily Precip Total
12:00 AM 36.6°F2.6°C 21.1°F-6.1°C 53% 1.2 mph NNE1.9 kmh NNE 1.2 mph1.9 kmh 29.82 in1009.8 mb - 0.00 in0.0 mm 0.00 in0.0 mm
12:10 AM 36.3°F2.4°C 20.8°F-6.2°C 53% 1.2 mph NNE1.9 kmh NNE 1.2 mph1.9 kmh 29.82 in1009.8 mb - 0.00 in0.0 mm 0.00 in0.0 mm
12:15 AM 36.1°F2.3°C 20.6°F-6.3°C 53% 1.2 mph NNE1.9 kmh NNE 1.2 mph1.9 kmh 29.81 in1009.5 mb - 0.00 in0.0 mm 0.00 in0.0 mm
12:20 AM 36.0°F2.2°C 20.5°F-6.4°C 53% Calm Calm -- 29.81 in1009.5 mb - 0.00 in0.0 mm 0.00 in0.0 mm
12:25 AM 36.0°F2.2°C 20.0°F-6.7°C 52% Calm Calm -- 29.81 in1009.5 mb - 0.00 in0.0 mm 0.00 in0.0 mm
12:30 AM 35.9°F2.2°C 20.0°F-6.7°C 52% Calm Calm -- 29.81 in1009.5 mb - 0.00 in0.0 mm 0.00 in0.0 mm
12:35 AM 35.8°F2.1°C 20.3°F-6.5°C 53% Calm Calm -- 29.81 in1009.5 mb - 0.00 in0.0 mm 0.00 in0.0 mm
12:40 AM 35.6°F2.0°C 19.7°F-6.8°C 52% Calm Calm -- 29.81 in1009.5 mb - 0.00 in0.0 mm 0.00 in0.0 mm
12:45 AM 35.4°F1.9°C 19.5°F-6.9°C 52% Calm Calm -- 29.81 in1009.5 mb - 0.00 in0.0 mm 0.00 in0.0 mm
12:50 AM 35.3°F1.8°C 19.4°F-7.0°C 52% Calm Calm -- 29.81 in1009.5 mb - 0.00 in0.0 mm 0.00 in0.0 mm
12:55 AM 35.2°F1.8°C 19.4°F-7.0°C 52% Calm Calm -- 29.81 in1009.5 mb - 0.00 in0.0 mm 0.00 in0.0 mm
01:00 AM 35.2°F1.8°C 19.4°F-7.0°C 52% 1.2 mph NNE1.9 kmh NNE 1.2 mph1.9 kmh 29.80 in1009.1 mb - 0.00 in0.0 mm 0.00 in0.0 mm
01:10 AM 34.9°F1.6°C 19.0°F-7.2°C 52% Calm Calm -- 29.80 in1009.1 mb - 0.00 in0.0 mm 0.00 in0.0 mm
01:15 AM 34.9°F1.6°C 19.0°F-7.2°C 52% Calm Calm -- 29.80 in1009.1 mb - 0.00 in0.0 mm 0.00 in0.0 mm
01:20 AM 34.7°F1.5°C 18.9°F-7.3°C 52% Calm Calm -- 29.80 in1009.1 mb - 0.00 in0.0 mm 0.00 in0.0 mm
01:25 AM 34.5°F1.4°C 18.7°F-7.4°C 52% Calm Calm -- 29.80 in1009.1 mb - 0.00 in0.0 mm 0.00 in0.0 mm
01:30 AM 34.5°F1.4°C 19.5°F-6.9°C 54% Calm Calm -- 29.80 in1009.1 mb - 0.00 in0.0 mm 0.00 in0.0 mm
01:35 AM 34.3°F1.3°C 19.0°F-7.2°C 53% Calm Calm -- 29.80 in1009.1 mb - 0.00 in0.0 mm 0.00 in0.0 mm
01:40 AM 34.2°F1.2°C 18.8°F-7.3°C 53% Calm Calm -- 29.80 in1009.1 mb - 0.00 in0.0 mm 0.00 in0.0 mm
01:45 AM 34.2°F1.2°C 18.8°F-7.3°C 53% Calm Calm -- 29.79 in1008.8 mb - 0.00 in0.0 mm 0.00 in0.0 mm
01:50 AM 34.2°F1.2°C 18.8°F-7.3°C 53% Calm Calm -- 29.79 in1008.8 mb - 0.00 in0.0 mm 0.00 in0.0 mm
01:55 AM 34.0°F1.1°C 18.6°F-7.4°C 53% Calm Calm -- 29.79 in1008.8 mb - 0.00 in0.0 mm 0.00 in0.0 mm
02:00 AM 34.1°F1.2°C 18.8°F-7.3°C 53% Calm Calm -- 29.79 in1008.8 mb - 0.00 in0.0 mm 0.00 in0.0 mm
02:10 AM 33.8°F1.0°C 18.9°F-7.3°C 54% Calm Calm -- 29.79 in1008.8 mb - 0.00 in0.0 mm 0.00 in0.0 mm
02:15 AM 33.6°F0.9°C 19.2°F-7.1°C 55% Calm Calm 1.2 mph1.9 kmh 29.79 in1008.8 mb - 0.00 in0.0 mm 0.00 in0.0 mm
02:20 AM 33.5°F0.8°C 19.9°F-6.7°C 57% 1.2 mph NNE1.9 kmh NNE 1.2 mph1.9 kmh 29.79 in1008.8 mb - 0.00 in0.0 mm 0.00 in0.0 mm
02:25 AM 33.3°F0.7°C 19.2°F-7.1°C 56% 1.2 mph NNE1.9 kmh NNE 1.2 mph1.9 kmh 29.79 in1008.8 mb - 0.00 in0.0 mm 0.00 in0.0 mm
02:30 AM 33.4°F0.8°C 19.4°F-7.0°C 56% Calm Calm -- 29.79 in1008.8 mb - 0.00 in0.0 mm 0.00 in0.0 mm
02:35 AM 33.4°F0.8°C 19.4°F-7.0°C 56% Calm Calm -- 29.79 in1008.8 mb - 0.00 in0.0 mm 0.00 in0.0 mm
02:40 AM 33.4°F0.8°C 19.8°F-6.8°C 57% Calm Calm 1.2 mph1.9 kmh 29.79 in1008.8 mb - 0.00 in0.0 mm 0.00 in0.0 mm
02:45 AM 33.3°F0.7°C 19.2°F-7.1°C 56% Calm Calm -- 29.78 in1008.5 mb - 0.00 in0.0 mm 0.00 in0.0 mm
02:50 AM 33.3°F0.7°C 19.7°F-6.8°C 57% Calm Calm -- 29.78 in1008.5 mb - 0.00 in0.0 mm 0.00 in0.0 mm
02:55 AM 33.3°F0.7°C 20.1°F-6.6°C 58% Calm Calm -- 29.78 in1008.5 mb - 0.00 in0.0 mm 0.00 in0.0 mm
03:00 AM 33.1°F0.6°C 19.5°F-6.9°C 57% Calm Calm -- 29.78 in1008.5 mb - 0.00 in0.0 mm 0.00 in0.0 mm
03:10 AM 32.5°F0.3°C 19.0°F-7.2°C 57% Calm Calm -- 29.78 in1008.5 mb - 0.00 in0.0 mm 0.00 in0.0 mm
03:15 AM 32.4°F0.2°C 19.6°F-6.9°C 59% 1.2 mph NNE1.9 kmh NNE 2.3 mph3.7 kmh 29.77 in1008.1 mb - 0.00 in0.0 mm 0.00 in0.0 mm
03:20 AM 32.4°F0.2°C 20.1°F-6.6°C 60% Calm Calm -- 29.77 in1008.1 mb - 0.00 in0.0 mm 0.00 in0.0 mm
03:25 AM 32.2°F0.1°C 19.8°F-6.8°C 60% 1.2 mph NNE1.9 kmh NNE 1.2 mph1.9 kmh 29.77 in1008.1 mb - 0.00 in0.0 mm 0.00 in0.0 mm
03:30 AM 32.0°F0.0°C 19.7°F-6.8°C 60% Calm Calm 1.2 mph1.9 kmh 29.79 in1008.8 mb - 0.00 in0.0 mm 0.00 in0.0 mm
03:35 AM 32.0°F0.0°C 19.7°F-6.8°C 60% 1.2 mph NNE1.9 kmh NNE 1.2 mph1.9 kmh 29.79 in1008.8 mb - 0.00 in0.0 mm 0.00 in0.0 mm
03:40 AM 32.0°F0.0°C 19.3°F-7.1°C 59% Calm Calm -- 29.79 in1008.8 mb - 0.00 in0.0 mm 0.00 in0.0 mm
03:45 AM 32.0°F0.0°C 19.3°F-7.1°C 59% Calm Calm -- 29.78 in1008.5 mb - 0.00 in0.0 mm 0.00 in0.0 mm
03:50 AM 32.0°F0.0°C 19.3°F-7.1°C 59% Calm Calm -- 29.78 in1008.5 mb - 0.00 in0.0 mm 0.00 in0.0 mm
03:55 AM 32.0°F0.0°C 19.7°F-6.8°C 60% Calm Calm -- 29.78 in1008.5 mb - 0.00 in0.0 mm 0.00 in0.0 mm
04:00 AM 32.0°F0.0°C 20.4°F-6.4°C 62% 1.2 mph NNE1.9 kmh NNE 1.2 mph1.9 kmh 29.77 in1008.1 mb - 0.00 in0.0 mm 0.00 in0.0 mm
04:10 AM 31.6°F-0.2°C 19.3°F-7.1°C 60% Calm Calm -- 29.77 in1008.1 mb - 0.00 in0.0 mm 0.00 in0.0 mm
04:15 AM 31.5°F-0.3°C 18.8°F-7.3°C 59% Calm Calm -- 29.77 in1008.1 mb - 0.00 in0.0 mm 0.00 in0.0 mm
04:20 AM 31.5°F-0.3°C 18.8°F-7.3°C 59% Calm Calm -- 29.77 in1008.1 mb - 0.00 in0.0 mm 0.00 in0.0 mm
04:25 AM 31.3°F-0.4°C 18.6°F-7.4°C 59% Calm Calm -- 29.77 in1008.1 mb - 0.00 in0.0 mm 0.00 in0.0 mm
04:30 AM 31.3°F-0.4°C 18.6°F-7.4°C 59% Calm Calm -- 29.77 in1008.1 mb - 0.00 in0.0 mm 0.00 in0.0 mm
04:35 AM 31.3°F-0.4°C 18.6°F-7.4°C 59% Calm Calm -- 29.77 in1008.1 mb - 0.00 in0.0 mm 0.00 in0.0 mm
04:40 AM 31.1°F-0.5°C 18.4°F-7.6°C 59% Calm Calm -- 29.77 in1008.1 mb - 0.00 in0.0 mm 0.00 in0.0 mm
04:45 AM 31.3°F-0.4°C 19.4°F-7.0°C 61% 1.2 mph NNE1.9 kmh NNE 2.3 mph3.7 kmh 29.78 in1008.5 mb - 0.00 in0.0 mm 0.00 in0.0 mm
04:50 AM 31.4°F-0.3°C 19.9°F-6.7°C 62% 1.2 mph NNE1.9 kmh NNE 1.2 mph1.9 kmh 29.78 in1008.5 mb - 0.00 in0.0 mm 0.00 in0.0 mm
04:55 AM 31.1°F-0.5°C 19.2°F-7.1°C 61% 1.2 mph NNE1.9 kmh NNE 1.2 mph1.9 kmh 29.78 in1008.5 mb - 0.00 in0.0 mm 0.00 in0.0 mm
05:00 AM 30.9°F-0.6°C 18.7°F-7.4°C 60% Calm Calm -- 29.77 in1008.1 mb - 0.00 in0.0 mm 0.00 in0.0 mm
05:10 AM 30.9°F-0.6°C 18.7°F-7.4°C 60% 1.2 mph NNE1.9 kmh NNE 1.2 mph1.9 kmh 29.77 in1008.1 mb - 0.00 in0.0 mm 0.00 in0.0 mm
05:15 AM 30.9°F-0.6°C 18.7°F-7.4°C 60% 1.2 mph NNE1.9 kmh NNE 1.2 mph1.9 kmh 29.77 in1008.1 mb - 0.00 in0.0 mm 0.00 in0.0 mm
05:20 AM 30.9°F-0.6°C 19.0°F-7.2°C 61% 1.2 mph NNE1.9 kmh NNE 1.2 mph1.9 kmh 29.77 in1008.1 mb - 0.00 in0.0 mm 0.00 in0.0 mm
05:25 AM 30.9°F-0.6°C 18.6°F-7.4°C 60% 1.2 mph NNE1.9 kmh NNE 2.3 mph3.7 kmh 29.77 in1008.1 mb - 0.00 in0.0 mm 0.00 in0.0 mm
05:30 AM 30.7°F-0.7°C 18.5°F-7.5°C 60% Calm Calm -- 29.77 in1008.1 mb - 0.00 in0.0 mm 0.00 in0.0 mm
05:35 AM 30.7°F-0.7°C 18.5°F-7.5°C 60% 1.2 mph NNE1.9 kmh NNE 2.3 mph3.7 kmh 29.77 in1008.1 mb - 0.00 in0.0 mm 0.00 in0.0 mm
05:40 AM 30.7°F-0.7°C 18.5°F-7.5°C 60% 1.2 mph NNE1.9 kmh NNE 1.2 mph1.9 kmh 29.77 in1008.1 mb - 0.00 in0.0 mm 0.00 in0.0 mm
05:45 AM 30.7°F-0.7°C 18.5°F-7.5°C 60% Calm Calm -- 29.77 in1008.1 mb - 0.00 in0.0 mm 0.00 in0.0 mm
05:50 AM 31.0°F-0.6°C 18.7°F-7.4°C 60% Calm Calm -- 29.77 in1008.1 mb - 0.00 in0.0 mm 0.00 in0.0 mm
05:55 AM 31.1°F-0.5°C 18.9°F-7.3°C 60% Calm Calm -- 29.77 in1008.1 mb - 0.00 in0.0 mm 0.00 in0.0 mm
06:00 AM 31.5°F-0.3°C 19.2°F-7.1°C 60% Calm Calm -- 29.77 in1008.1 mb - 0.00 in0.0 mm 0.00 in0.0 mm
06:10 AM 32.2°F0.1°C 19.8°F-6.8°C 60% Calm Calm -- 29.77 in1008.1 mb - 0.00 in0.0 mm 0.00 in0.0 mm
06:15 AM 32.6°F0.3°C 20.3°F-6.5°C 60% Calm Calm -- 29.77 in1008.1 mb - 0.00 in0.0 mm 0.00 in0.0 mm
06:20 AM 33.2°F0.7°C 20.8°F-6.2°C 60% Calm Calm -- 29.77 in1008.1 mb - 0.00 in0.0 mm 0.00 in0.0 mm
06:25 AM 34.1°F1.2°C 21.2°F-6.0°C 59% Calm Calm -- 29.77 in1008.1 mb - 0.00 in0.0 mm 0.00 in0.0 mm
06:30 AM 35.4°F1.9°C 23.7°F-4.6°C 62% 1.2 mph NNE1.9 kmh NNE 2.3 mph3.7 kmh 29.78 in1008.5 mb - 0.00 in0.0 mm 0.00 in0.0 mm
06:35 AM 37.0°F2.8°C 25.2°F-3.8°C 62% 1.2 mph NNE1.9 kmh NNE 2.3 mph3.7 kmh 29.78 in1008.5 mb - 0.00 in0.0 mm 0.00 in0.0 mm
06:40 AM 38.7°F3.7°C 26.3°F-3.2°C 61% 1.2 mph NNE1.9 kmh NNE 1.2 mph1.9 kmh 29.78 in1008.5 mb - 0.00 in0.0 mm 0.00 in0.0 mm
06:45 AM 39.9°F4.4°C 27.1°F-2.7°C 60% 1.2 mph NNE1.9 kmh NNE 1.2 mph1.9 kmh 29.78 in1008.5 mb - 0.00 in0.0 mm 0.00 in0.0 mm
06:50 AM 40.8°F4.9°C 27.6°F-2.4°C 59% Calm Calm -- 29.78 in1008.5 mb - 0.00 in0.0 mm 0.00 in0.0 mm
06:55 AM 42.7°F5.9°C 28.9°F-1.7°C 58% Calm Calm -- 29.78 in1008.5 mb - 0.00 in0.0 mm 0.00 in0.0 mm
07:00 AM 43.5°F6.4°C 29.3°F-1.5°C 57% Calm Calm -- 29.77 in1008.1 mb - 0.00 in0.0 mm 0.00 in0.0 mm
07:10 AM 46.4°F8.0°C 31.1°F-0.5°C 55% 1.2 mph SW1.9 kmh SW 2.3 mph3.7 kmh 29.77 in1008.1 mb - 0.00 in0.0 mm 0.00 in0.0 mm
07:15 AM 48.0°F8.9°C 32.1°F0.1°C 54% 2.3 mph SW3.7 kmh SW 2.3 mph3.7 kmh 29.77 in1008.1 mb - 0.00 in0.0 mm 0.00 in0.0 mm
07:20 AM 49.3°F9.6°C 32.9°F0.5°C 53% 2.3 mph WNW3.7 kmh WNW 3.5 mph5.6 kmh 29.77 in1008.1 mb - 0.00 in0.0 mm 0.00 in0.0 mm
07:25 AM 50.8°F10.4°C 34.2°F1.2°C 53% 2.3 mph SW3.7 kmh SW 3.5 mph5.6 kmh 29.77 in1008.1 mb - 0.00 in0.0 mm 0.00 in0.0 mm
07:30 AM 52.2°F11.2°C 35.1°F1.7°C 52% 2.3 mph WNW3.7 kmh WNW 1.2 mph1.9 kmh 29.77 in1008.1 mb - 0.00 in0.0 mm 0.00 in0.0 mm
07:35 AM 53.8°F12.1°C 34.5°F1.4°C 48% 3.5 mph WSW5.6 kmh WSW 4.6 mph7.4 kmh 29.77 in1008.1 mb - 0.00 in0.0 mm 0.00 in0.0 mm
07:40 AM 55.0°F12.8°C 35.1°F1.7°C 47% 2.3 mph SSW3.7 kmh SSW 3.5 mph5.6 kmh 29.77 in1008.1 mb - 0.00 in0.0 mm 0.00 in0.0 mm
07:45 AM 55.6°F13.1°C 35.7°F2.1°C 47% 2.3 mph WSW3.7 kmh WSW 3.5 mph5.6 kmh 29.78 in1008.5 mb - 0.00 in0.0 mm 0.00 in0.0 mm
07:50 AM 56.5°F13.6°C 36.0°F2.2°C 46% 2.3 mph W3.7 kmh W 2.3 mph3.7 kmh 29.78 in1008.5 mb - 0.00 in0.0 mm 0.00 in0.0 mm
07:55 AM 57.2°F14.0°C 35.5°F1.9°C 44% 2.3 mph SSW3.7 kmh SSW 2.3 mph3.7 kmh 29.78 in1008.5 mb - 0.00 in0.0 mm 0.00 in0.0 mm
08:00 AM 57.9°F14.4°C 36.7°F2.6°C 45% 2.3 mph NW3.7 kmh NW 4.6 mph7.4 kmh 29.78 in1008.5 mb - 0.00 in0.0 mm 0.00 in0.0 mm
08:10 AM 59.0°F15.0°C 35.9°F2.2°C 42% 3.5 mph S5.6 kmh S 3.5 mph5.6 kmh 29.78 in1008.5 mb - 0.00 in0.0 mm 0.00 in0.0 mm
08:15 AM 59.7°F15.4°C 36.5°F2.5°C 42% 2.3 mph SSW3.7 kmh SSW 2.3 mph3.7 kmh 29.77 in1008.1 mb - 0.00 in0.0 mm 0.00 in0.0 mm
08:20 AM 60.1°F15.6°C 36.3°F2.4°C 41% 2.3 mph S3.7 kmh S 3.5 mph5.6 kmh 29.77 in1008.1 mb - 0.00 in0.0 mm 0.00 in0.0 mm
08:25 AM 60.3°F15.7°C 35.2°F1.8°C 39% 2.3 mph SW3.7 kmh SW 3.5 mph5.6 kmh 29.77 in1008.1 mb - 0.00 in0.0 mm 0.00 in0.0 mm
08:30 AM 60.8°F16.0°C 35.0°F1.7°C 38% 4.6 mph SSW7.4 kmh SSW 4.6 mph7.4 kmh 29.77 in1008.1 mb - 0.00 in0.0 mm 0.00 in0.0 mm
08:35 AM 61.2°F16.2°C 35.3°F1.8°C 38% 3.5 mph SW5.6 kmh SW 3.5 mph5.6 kmh 29.77 in1008.1 mb - 0.00 in0.0 mm 0.00 in0.0 mm
08:40 AM 61.6°F16.4°C 35.8°F2.1°C 38% 2.3 mph SSE3.7 kmh SSE 3.5 mph5.6 kmh 29.77 in1008.1 mb - 0.00 in0.0 mm 0.00 in0.0 mm
08:45 AM 62.2°F16.8°C 35.6°F2.0°C 37% 2.3 mph S3.7 kmh S 3.5 mph5.6 kmh 29.77 in1008.1 mb - 0.00 in0.0 mm 0.00 in0.0 mm
08:50 AM 62.6°F17.0°C 35.9°F2.2°C 37% 3.5 mph SSW5.6 kmh SSW 3.5 mph5.6 kmh 29.77 in1008.1 mb - 0.00 in0.0 mm 0.00 in0.0 mm
08:55 AM 62.1°F16.7°C 33.3°F0.7°C 34% 3.5 mph WNW5.6 kmh WNW 3.5 mph5.6 kmh 29.77 in1008.1 mb - 0.00 in0.0 mm 0.00 in0.0 mm
09:00 AM 62.8°F17.1°C 34.7°F1.5°C 35% 2.3 mph SSE3.7 kmh SSE 2.3 mph3.7 kmh 29.77 in1008.1 mb - 0.00 in0.0 mm 0.00 in0.0 mm
09:10 AM 63.7°F17.6°C 35.5°F1.9°C 35% 1.2 mph SSW1.9 kmh SSW 3.5 mph5.6 kmh 29.77 in1008.1 mb - 0.00 in0.0 mm 0.00 in0.0 mm
09:15 AM 64.2°F17.9°C 35.2°F1.8°C 34% 1.2 mph SW1.9 kmh SW 2.3 mph3.7 kmh 29.78 in1008.5 mb - 0.00 in0.0 mm 0.00 in0.0 mm
09:20 AM 64.8°F18.2°C 35.7°F2.1°C 34% 2.3 mph SE3.7 kmh SE 3.5 mph5.6 kmh 29.78 in1008.5 mb - 0.00 in0.0 mm 0.00 in0.0 mm
09:25 AM 64.9°F18.3°C 35.1°F1.7°C 33% 1.2 mph SW1.9 kmh SW 1.2 mph1.9 kmh 29.78 in1008.5 mb - 0.00 in0.0 mm 0.00 in0.0 mm
09:30 AM 64.0°F17.8°C 32.8°F0.4°C 31% 3.5 mph N5.6 kmh N 3.5 mph5.6 kmh 29.77 in1008.1 mb - 0.00 in0.0 mm 0.00 in0.0 mm
09:35 AM 65.1°F18.4°C 34.5°F1.4°C 32% 2.3 mph SSW3.7 kmh SSW 3.5 mph5.6 kmh 29.77 in1008.1 mb - 0.00 in0.0 mm 0.00 in0.0 mm
09:40 AM 65.5°F18.6°C 34.8°F1.6°C 32% 3.5 mph SSW5.6 kmh SSW 3.5 mph5.6 kmh 29.77 in1008.1 mb - 0.00 in0.0 mm 0.00 in0.0 mm
09:45 AM 65.8°F18.8°C 35.1°F1.7°C 32% 2.3 mph SSE3.7 kmh SSE 3.5 mph5.6 kmh 29.77 in1008.1 mb - 0.00 in0.0 mm 0.00 in0.0 mm
09:50 AM 65.8°F18.8°C 35.1°F1.7°C 32% 5.8 mph SSE9.3 kmh SSE 4.6 mph7.4 kmh 29.77 in1008.1 mb - 0.00 in0.0 mm 0.00 in0.0 mm
09:55 AM 65.7°F18.7°C 35.0°F1.7°C 32% 2.3 mph ESE3.7 kmh ESE 3.5 mph5.6 kmh 29.77 in1008.1 mb - 0.00 in0.0 mm 0.00 in0.0 mm
10:00 AM 66.7°F19.3°C 34.3°F1.3°C 30% 5.8 mph SSW9.3 kmh SSW 5.8 mph9.3 kmh 29.77 in1008.1 mb - 0.00 in0.0 mm 0.00 in0.0 mm
10:10 AM 66.1°F18.9°C 32.9°F0.5°C 29% 3.5 mph SW5.6 kmh SW 4.6 mph7.4 kmh 29.77 in1008.1 mb - 0.00 in0.0 mm 0.00 in0.0 mm
10:15 AM 66.3°F19.1°C 33.9°F1.1°C 30% 4.6 mph ESE7.4 kmh ESE 5.8 mph9.3 kmh 29.78 in1008.5 mb - 0.00 in0.0 mm 0.00 in0.0 mm
10:20 AM 66.5°F19.2°C 33.2°F0.7°C 29% 4.6 mph SSW7.4 kmh SSW 6.9 mph11.1 kmh 29.78 in1008.5 mb - 0.00 in0.0 mm 0.00 in0.0 mm
10:25 AM 66.6°F19.2°C 34.1°F1.2°C 30% 2.3 mph S3.7 kmh S 3.5 mph5.6 kmh 29.78 in1008.5 mb - 0.00 in0.0 mm 0.00 in0.0 mm
10:30 AM 66.0°F18.9°C 32.0°F0.0°C 28% 3.5 mph N5.6 kmh N 3.5 mph5.6 kmh 29.77 in1008.1 mb - 0.00 in0.0 mm 0.00 in0.0 mm
10:35 AM 67.1°F19.5°C 34.6°F1.4°C 30% 4.6 mph SE7.4 kmh SE 5.8 mph9.3 kmh 29.77 in1008.1 mb - 0.00 in0.0 mm 0.00 in0.0 mm
10:40 AM 67.8°F19.9°C 35.2°F1.8°C 30% 4.6 mph S7.4 kmh S 4.6 mph7.4 kmh 29.77 in1008.1 mb - 0.00 in0.0 mm 0.00 in0.0 mm
10:45 AM 67.7°F19.8°C 33.4°F0.8°C 28% 2.3 mph SW3.7 kmh SW 5.8 mph9.3 kmh 29.76 in1007.8 mb - 0.00 in0.0 mm 0.00 in0.0 mm
10:50 AM 67.8°F19.9°C 33.5°F0.8°C 28% 3.5 mph SW5.6 kmh SW 5.8 mph9.3 kmh 29.76 in1007.8 mb - 0.00 in0.0 mm 0.00 in0.0 mm
10:55 AM 67.5°F19.7°C 33.2°F0.7°C 28% 3.5 mph SW5.6 kmh SW 3.5 mph5.6 kmh 29.76 in1007.8 mb - 0.00 in0.0 mm 0.00 in0.0 mm
11:00 AM 67.8°F19.9°C 34.4°F1.3°C 29% 2.3 mph ESE3.7 kmh ESE 2.3 mph3.7 kmh 29.76 in1007.8 mb - 0.00 in0.0 mm 0.00 in0.0 mm
11:10 AM 68.7°F20.4°C 34.3°F1.3°C 28% 4.6 mph S7.4 kmh S 5.8 mph9.3 kmh 29.76 in1007.8 mb - 0.00 in0.0 mm 0.00 in0.0 mm
11:15 AM 68.5°F20.3°C 34.1°F1.2°C 28% 2.3 mph SSW3.7 kmh SSW 3.5 mph5.6 kmh 29.75 in1007.5 mb - 0.00 in0.0 mm 0.00 in0.0 mm
11:20 AM 69.4°F20.8°C 34.9°F1.6°C 28% 3.5 mph WNW5.6 kmh WNW 3.5 mph5.6 kmh 29.75 in1007.5 mb - 0.00 in0.0 mm 0.00 in0.0 mm
11:25 AM 68.7°F20.4°C 32.4°F0.2°C 26% 5.8 mph SW9.3 kmh SW 5.8 mph9.3 kmh 29.75 in1007.5 mb - 0.00 in0.0 mm 0.00 in0.0 mm
11:30 AM 69.3°F20.7°C 31.9°F-0.1°C 25% 5.8 mph SSW9.3 kmh SSW 6.9 mph11.1 kmh 29.75 in1007.5 mb - 0.00 in0.0 mm 0.00 in0.0 mm
11:35 AM 69.3°F20.7°C 31.9°F-0.1°C 25% 2.3 mph SSW3.7 kmh SSW 2.3 mph3.7 kmh 29.75 in1007.5 mb - 0.00 in0.0 mm 0.00 in0.0 mm
11:40 AM 69.6°F20.9°C 33.1°F0.6°C 26% 2.3 mph NNW3.7 kmh NNW 3.5 mph5.6 kmh 29.75 in1007.5 mb - 0.00 in0.0 mm 0.00 in0.0 mm
11:45 AM 70.0°F21.1°C 32.6°F0.3°C 25% 5.8 mph NNW9.3 kmh NNW 9.2 mph14.8 kmh 29.74 in1007.1 mb - 0.00 in0.0 mm 0.00 in0.0 mm
11:50 AM 69.0°F20.6°C 31.6°F-0.2°C 25% 2.3 mph WSW3.7 kmh WSW 2.3 mph3.7 kmh 29.74 in1007.1 mb - 0.00 in0.0 mm 0.00 in0.0 mm
11:55 AM 69.8°F21.0°C 32.4°F0.2°C 25% 1.2 mph S1.9 kmh S 2.3 mph3.7 kmh 29.74 in1007.1 mb - 0.00 in0.0 mm 0.00 in0.0 mm
12:00 PM 69.6°F20.9°C 32.2°F0.1°C 25% 5.8 mph NNW9.3 kmh NNW 8.1 mph13.0 kmh 29.73 in1006.8 mb - 0.00 in0.0 mm 0.00 in0.0 mm
12:10 PM 69.8°F21.0°C 32.4°F0.2°C 25% 3.5 mph WNW5.6 kmh WNW 4.6 mph7.4 kmh 29.73 in1006.8 mb - 0.00 in0.0 mm 0.00 in0.0 mm
12:15 PM 70.2°F21.2°C 32.7°F0.4°C 25% 3.5 mph W5.6 kmh W 4.6 mph7.4 kmh 29.74 in1007.1 mb - 0.00 in0.0 mm 0.00 in0.0 mm
12:20 PM 70.0°F21.1°C 32.5°F0.3°C 25% 3.5 mph NE5.6 kmh NE 4.6 mph7.4 kmh 29.74 in1007.1 mb - 0.00 in0.0 mm 0.00 in0.0 mm
12:25 PM 70.9°F21.6°C 33.3°F0.7°C 25% 5.8 mph SSW9.3 kmh SSW 8.1 mph13.0 kmh 29.74 in1007.1 mb - 0.00 in0.0 mm 0.00 in0.0 mm
12:30 PM 71.2°F21.8°C 33.6°F0.9°C 25% 3.5 mph S5.6 kmh S 3.5 mph5.6 kmh 29.73 in1006.8 mb - 0.00 in0.0 mm 0.00 in0.0 mm
12:35 PM 71.8°F22.1°C 34.0°F1.1°C 25% 2.3 mph S3.7 kmh S 3.5 mph5.6 kmh 29.73 in1006.8 mb - 0.00 in0.0 mm 0.00 in0.0 mm
12:40 PM 71.8°F22.1°C 34.0°F1.1°C 25% 4.6 mph W7.4 kmh W 3.5 mph5.6 kmh 29.73 in1006.8 mb - 0.00 in0.0 mm 0.00 in0.0 mm
12:45 PM 70.9°F21.6°C 33.3°F0.7°C 25% 4.6 mph NW7.4 kmh NW 5.8 mph9.3 kmh 29.73 in1006.8 mb - 0.00 in0.0 mm 0.00 in0.0 mm
12:50 PM 70.9°F21.6°C 33.3°F0.7°C 25% 4.6 mph NNE7.4 kmh NNE 5.8 mph9.3 kmh 29.73 in1006.8 mb - 0.00 in0.0 mm 0.00 in0.0 mm
12:55 PM 71.6°F22.0°C 33.9°F1.1°C 25% 4.6 mph NE7.4 kmh NE 6.9 mph11.1 kmh 29.73 in1006.8 mb - 0.00 in0.0 mm 0.00 in0.0 mm
01:00 PM 70.9°F21.6°C 33.3°F0.7°C 25% 4.6 mph W7.4 kmh W 3.5 mph5.6 kmh 29.71 in1006.1 mb - 0.00 in0.0 mm 0.00 in0.0 mm
01:10 PM 71.8°F22.1°C 34.1°F1.2°C 25% 4.6 mph NNW7.4 kmh NNW 4.6 mph7.4 kmh 29.71 in1006.1 mb - 0.00 in0.0 mm 0.00 in0.0 mm
01:15 PM 71.5°F21.9°C 33.8°F1.0°C 25% 3.5 mph NNE5.6 kmh NNE 4.6 mph7.4 kmh 29.71 in1006.1 mb - 0.00 in0.0 mm 0.00 in0.0 mm
01:20 PM 72.7°F22.6°C 34.8°F1.6°C 25% 2.3 mph ENE3.7 kmh ENE 3.5 mph5.6 kmh 29.71 in1006.1 mb - 0.00 in0.0 mm 0.00 in0.0 mm
01:25 PM 72.5°F22.5°C 34.7°F1.5°C 25% 5.8 mph NNE9.3 kmh NNE 5.8 mph9.3 kmh 29.71 in1006.1 mb - 0.00 in0.0 mm 0.00 in0.0 mm
01:30 PM 72.1°F22.3°C 34.4°F1.3°C 25% 6.9 mph E11.1 kmh E 6.9 mph11.1 kmh 29.71 in1006.1 mb - 0.00 in0.0 mm 0.00 in0.0 mm
01:35 PM 72.5°F22.5°C 34.7°F1.5°C 25% 4.6 mph NE7.4 kmh NE 4.6 mph7.4 kmh 29.71 in1006.1 mb - 0.00 in0.0 mm 0.00 in0.0 mm
01:40 PM 72.6°F22.6°C 34.7°F1.5°C 25% 4.6 mph SE7.4 kmh SE 5.8 mph9.3 kmh 29.71 in1006.1 mb - 0.00 in0.0 mm 0.00 in0.0 mm
01:45 PM 72.9°F22.7°C 35.0°F1.7°C 25% 2.3 mph SSW3.7 kmh SSW 2.3 mph3.7 kmh 29.70 in1005.8 mb - 0.00 in0.0 mm 0.00 in0.0 mm
01:50 PM 72.5°F22.5°C 34.7°F1.5°C 25% 3.5 mph ENE5.6 kmh ENE 5.8 mph9.3 kmh 29.70 in1005.8 mb - 0.00 in0.0 mm 0.00 in0.0 mm
01:55 PM 73.2°F22.9°C 35.3°F1.8°C 25% 2.3 mph ESE3.7 kmh ESE 2.3 mph3.7 kmh 29.70 in1005.8 mb - 0.00 in0.0 mm 0.00 in0.0 mm
02:00 PM 72.9°F22.7°C 35.0°F1.7°C 25% 3.5 mph SW5.6 kmh SW 3.5 mph5.6 kmh 29.69 in1005.4 mb - 0.00 in0.0 mm 0.00 in0.0 mm
02:10 PM 72.7°F22.6°C 34.8°F1.6°C 25% 6.9 mph NW11.1 kmh NW 10.4 mph16.7 kmh 29.69 in1005.4 mb - 0.00 in0.0 mm 0.00 in0.0 mm
02:15 PM 72.0°F22.2°C 34.2°F1.2°C 25% 3.5 mph NW5.6 kmh NW 4.6 mph7.4 kmh 29.69 in1005.4 mb - 0.00 in0.0 mm 0.00 in0.0 mm
02:20 PM 73.0°F22.8°C 35.1°F1.7°C 25% 3.5 mph WNW5.6 kmh WNW 5.8 mph9.3 kmh 29.69 in1005.4 mb - 0.00 in0.0 mm 0.00 in0.0 mm
02:25 PM 72.3°F22.4°C 34.5°F1.4°C 25% 3.5 mph NW5.6 kmh NW 5.8 mph9.3 kmh 29.69 in1005.4 mb - 0.00 in0.0 mm 0.00 in0.0 mm
02:30 PM 72.7°F22.6°C 34.8°F1.6°C 25% 2.3 mph NW3.7 kmh NW 1.2 mph1.9 kmh 29.68 in1005.1 mb - 0.00 in0.0 mm 0.00 in0.0 mm
02:35 PM 73.2°F22.9°C 35.3°F1.8°C 25% 3.5 mph S5.6 kmh S 3.5 mph5.6 kmh 29.68 in1005.1 mb - 0.00 in0.0 mm 0.00 in0.0 mm
02:40 PM 72.4°F22.4°C 34.6°F1.4°C 25% 3.5 mph NW5.6 kmh NW 5.8 mph9.3 kmh 29.68 in1005.1 mb - 0.00 in0.0 mm 0.00 in0.0 mm
02:45 PM 71.2°F21.8°C 33.5°F0.8°C 25% 2.3 mph S3.7 kmh S 3.5 mph5.6 kmh 29.67 in1004.7 mb - 0.00 in0.0 mm 0.00 in0.0 mm
02:50 PM 72.0°F22.2°C 34.2°F1.2°C 25% 4.6 mph ENE7.4 kmh ENE 3.5 mph5.6 kmh 29.67 in1004.7 mb - 0.00 in0.0 mm 0.00 in0.0 mm
02:55 PM 72.5°F22.5°C 34.7°F1.5°C 25% 2.3 mph NNE3.7 kmh NNE 2.3 mph3.7 kmh 29.67 in1004.7 mb - 0.00 in0.0 mm 0.00 in0.0 mm
03:00 PM 72.5°F22.5°C 34.7°F1.5°C 25% 4.6 mph NNE7.4 kmh NNE 3.5 mph5.6 kmh 29.68 in1005.1 mb - 0.00 in0.0 mm 0.00 in0.0 mm
03:10 PM 71.2°F21.8°C 33.6°F0.9°C 25% 4.6 mph N7.4 kmh N 6.9 mph11.1 kmh 29.68 in1005.1 mb - 0.00 in0.0 mm 0.00 in0.0 mm
03:15 PM 71.4°F21.9°C 33.7°F0.9°C 25% 6.9 mph NNW11.1 kmh NNW 6.9 mph11.1 kmh 29.66 in1004.4 mb - 0.00 in0.0 mm 0.00 in0.0 mm
03:20 PM 71.8°F22.1°C 34.0°F1.1°C 25% 3.5 mph E5.6 kmh E 3.5 mph5.6 kmh 29.66 in1004.4 mb - 0.00 in0.0 mm 0.00 in0.0 mm
03:25 PM 72.0°F22.2°C 34.2°F1.2°C 25% 2.3 mph ESE3.7 kmh ESE 5.8 mph9.3 kmh 29.66 in1004.4 mb - 0.00 in0.0 mm 0.00 in0.0 mm
03:30 PM 71.8°F22.1°C 34.0°F1.1°C 25% 5.8 mph NNW9.3 kmh NNW 8.1 mph13.0 kmh 29.66 in1004.4 mb - 0.00 in0.0 mm 0.00 in0.0 mm
03:35 PM 71.7°F22.1°C 33.9°F1.1°C 25% 3.5 mph NE5.6 kmh NE 3.5 mph5.6 kmh 29.66 in1004.4 mb - 0.00 in0.0 mm 0.00 in0.0 mm
03:40 PM 71.7°F22.1°C 34.0°F1.1°C 25% 4.6 mph NW7.4 kmh NW 5.8 mph9.3 kmh 29.66 in1004.4 mb - 0.00 in0.0 mm 0.00 in0.0 mm
03:45 PM 71.2°F21.8°C 33.6°F0.9°C 25% 4.6 mph NW7.4 kmh NW 5.8 mph9.3 kmh 29.66 in1004.4 mb - 0.00 in0.0 mm 0.00 in0.0 mm
03:50 PM 71.6°F22.0°C 33.9°F1.1°C 25% 3.5 mph NNE5.6 kmh NNE 4.6 mph7.4 kmh 29.66 in1004.4 mb - 0.00 in0.0 mm 0.00 in0.0 mm
03:55 PM 71.4°F21.9°C 33.7°F0.9°C 25% 2.3 mph NNE3.7 kmh NNE 6.9 mph11.1 kmh 29.66 in1004.4 mb - 0.00 in0.0 mm 0.00 in0.0 mm
04:00 PM 71.4°F21.9°C 33.7°F0.9°C 25% 2.3 mph NW3.7 kmh NW 2.3 mph3.7 kmh 29.65 in1004.1 mb - 0.00 in0.0 mm 0.00 in0.0 mm
04:10 PM 71.1°F21.7°C 33.4°F0.8°C 25% 5.8 mph NNE9.3 kmh NNE 5.8 mph9.3 kmh 29.65 in1004.1 mb - 0.00 in0.0 mm 0.00 in0.0 mm
04:15 PM 71.0°F21.7°C 33.4°F0.8°C 25% 5.8 mph NNW9.3 kmh NNW 5.8 mph9.3 kmh 29.65 in1004.1 mb - 0.00 in0.0 mm 0.00 in0.0 mm
04:20 PM 70.9°F21.6°C 33.3°F0.7°C 25% 4.6 mph NNW7.4 kmh NNW 5.8 mph9.3 kmh 29.65 in1004.1 mb - 0.00 in0.0 mm 0.00 in0.0 mm
04:25 PM 70.7°F21.5°C 33.1°F0.6°C 25% 3.5 mph NE5.6 kmh NE 4.6 mph7.4 kmh 29.65 in1004.1 mb - 0.00 in0.0 mm 0.00 in0.0 mm
04:30 PM 70.3°F21.3°C 32.8°F0.4°C 25% 2.3 mph WNW3.7 kmh WNW 2.3 mph3.7 kmh 29.64 in1003.7 mb - 0.00 in0.0 mm 0.00 in0.0 mm
04:35 PM 70.2°F21.2°C 32.7°F0.4°C 25% 1.2 mph WNW1.9 kmh WNW 2.3 mph3.7 kmh 29.64 in1003.7 mb - 0.00 in0.0 mm 0.00 in0.0 mm
04:40 PM 70.0°F21.1°C 32.6°F0.3°C 25% 3.5 mph NE5.6 kmh NE 3.5 mph5.6 kmh 29.64 in1003.7 mb - 0.00 in0.0 mm 0.00 in0.0 mm
04:45 PM 70.0°F21.1°C 32.5°F0.3°C 25% 5.8 mph NNW9.3 kmh NNW 5.8 mph9.3 kmh 29.65 in1004.1 mb - 0.00 in0.0 mm 0.00 in0.0 mm
04:50 PM 69.8°F21.0°C 32.4°F0.2°C 25% 5.8 mph WNW9.3 kmh WNW 6.9 mph11.1 kmh 29.65 in1004.1 mb - 0.00 in0.0 mm 0.00 in0.0 mm
04:55 PM 69.6°F20.9°C 32.2°F0.1°C 25% 6.9 mph NNW11.1 kmh NNW 8.1 mph13.0 kmh 29.65 in1004.1 mb - 0.00 in0.0 mm 0.00 in0.0 mm
05:00 PM 69.6°F20.9°C 32.2°F0.1°C 25% 3.5 mph N5.6 kmh N 3.5 mph5.6 kmh 29.64 in1003.7 mb - 0.00 in0.0 mm 0.00 in0.0 mm
05:10 PM 69.1°F20.6°C 31.8°F-0.1°C 25% 3.5 mph N5.6 kmh N 4.6 mph7.4 kmh 29.64 in1003.7 mb - 0.00 in0.0 mm 0.00 in0.0 mm
05:15 PM 68.7°F20.4°C 31.4°F-0.3°C 25% 3.5 mph NNW5.6 kmh NNW 4.6 mph7.4 kmh 29.64 in1003.7 mb - 0.00 in0.0 mm 0.00 in0.0 mm
05:20 PM 68.4°F20.2°C 31.1°F-0.5°C 25% 4.6 mph NW7.4 kmh NW 5.8 mph9.3 kmh 29.64 in1003.7 mb - 0.00 in0.0 mm 0.00 in0.0 mm
05:25 PM 68.4°F20.2°C 31.1°F-0.5°C 25% 4.6 mph NW7.4 kmh NW 5.8 mph9.3 kmh 29.64 in1003.7 mb - 0.00 in0.0 mm 0.00 in0.0 mm
05:30 PM 67.7°F19.8°C 30.5°F-0.8°C 25% 3.5 mph NW5.6 kmh NW 3.5 mph5.6 kmh 29.65 in1004.1 mb - 0.00 in0.0 mm 0.00 in0.0 mm
05:35 PM 67.6°F19.8°C 30.5°F-0.8°C 25% 3.5 mph NNW5.6 kmh NNW 4.6 mph7.4 kmh 29.65 in1004.1 mb - 0.00 in0.0 mm 0.00 in0.0 mm
05:40 PM 67.4°F19.7°C 30.3°F-0.9°C 25% 3.5 mph NNW5.6 kmh NNW 4.6 mph7.4 kmh 29.65 in1004.1 mb - 0.00 in0.0 mm 0.00 in0.0 mm
05:45 PM 66.7°F19.3°C 29.8°F-1.2°C 25% 2.3 mph NNW3.7 kmh NNW 2.3 mph3.7 kmh 29.64 in1003.7 mb - 0.00 in0.0 mm 0.00 in0.0 mm
05:50 PM 65.8°F18.8°C 29.0°F-1.7°C 25% 2.3 mph NNW3.7 kmh NNW 2.3 mph3.7 kmh 29.64 in1003.7 mb - 0.00 in0.0 mm 0.00 in0.0 mm
05:55 PM 65.3°F18.5°C 28.5°F-1.9°C 25% 2.3 mph NW3.7 kmh NW 3.5 mph5.6 kmh 29.64 in1003.7 mb - 0.00 in0.0 mm 0.00 in0.0 mm
06:00 PM 64.6°F18.1°C 28.0°F-2.2°C 25% 2.3 mph NNW3.7 kmh NNW 2.3 mph3.7 kmh 29.65 in1004.1 mb - 0.00 in0.0 mm 0.00 in0.0 mm
06:10 PM 63.6°F17.6°C 27.1°F-2.7°C 25% 1.2 mph NNW1.9 kmh NNW 1.2 mph1.9 kmh 29.65 in1004.1 mb - 0.00 in0.0 mm 0.00 in0.0 mm
06:15 PM 63.1°F17.3°C 26.7°F-2.9°C 25% Calm Calm 1.2 mph1.9 kmh 29.65 in1004.1 mb - 0.00 in0.0 mm 0.00 in0.0 mm
06:20 PM 62.4°F16.9°C 26.1°F-3.3°C 25% 1.2 mph NNW1.9 kmh NNW 1.2 mph1.9 kmh 29.65 in1004.1 mb - 0.00 in0.0 mm 0.00 in0.0 mm
06:25 PM 61.9°F16.6°C 25.6°F-3.6°C 25% 1.2 mph NNW1.9 kmh NNW 1.2 mph1.9 kmh 29.65 in1004.1 mb - 0.00 in0.0 mm 0.00 in0.0 mm
06:30 PM 61.2°F16.2°C 25.0°F-3.9°C 25% Calm Calm 1.2 mph1.9 kmh 29.65 in1004.1 mb - 0.00 in0.0 mm 0.00 in0.0 mm
06:35 PM 60.7°F15.9°C 24.6°F-4.1°C 25% Calm Calm -- 29.65 in1004.1 mb - 0.00 in0.0 mm 0.00 in0.0 mm
06:40 PM 60.2°F15.7°C 24.2°F-4.3°C 25% Calm Calm 1.2 mph1.9 kmh 29.65 in1004.1 mb - 0.00 in0.0 mm 0.00 in0.0 mm
06:45 PM 59.5°F15.3°C 23.6°F-4.7°C 25% Calm Calm -- 29.66 in1004.4 mb - 0.00 in0.0 mm 0.00 in0.0 mm
06:50 PM 58.3°F14.6°C 22.6°F-5.2°C 25% Calm Calm -- 29.66 in1004.4 mb - 0.00 in0.0 mm 0.00 in0.0 mm
06:55 PM 57.0°F13.9°C 25.0°F-3.9°C 29% 1.2 mph NNW1.9 kmh NNW 1.2 mph1.9 kmh 29.66 in1004.4 mb - 0.00 in0.0 mm 0.00 in0.0 mm
07:00 PM 56.6°F13.7°C 23.8°F-4.6°C 28% 1.2 mph NNW1.9 kmh NNW 1.2 mph1.9 kmh 29.66 in1004.4 mb - 0.00 in0.0 mm 0.00 in0.0 mm
07:10 PM 55.7°F13.2°C 23.0°F-5.0°C 28% 1.2 mph NNW1.9 kmh NNW 1.2 mph1.9 kmh 29.66 in1004.4 mb - 0.00 in0.0 mm 0.00 in0.0 mm
07:15 PM 55.0°F12.8°C 21.6°F-5.8°C 27% 1.2 mph NNW1.9 kmh NNW 2.3 mph3.7 kmh 29.67 in1004.7 mb - 0.00 in0.0 mm 0.00 in0.0 mm
07:20 PM 55.0°F12.8°C 22.5°F-5.3°C 28% Calm Calm -- 29.67 in1004.7 mb - 0.00 in0.0 mm 0.00 in0.0 mm
07:25 PM 54.0°F12.2°C 23.2°F-4.9°C 30% Calm Calm -- 29.67 in1004.7 mb - 0.00 in0.0 mm 0.00 in0.0 mm
07:30 PM 53.8°F12.1°C 23.8°F-4.6°C 31% 2.3 mph NE3.7 kmh NE 2.3 mph3.7 kmh 29.66 in1004.4 mb - 0.00 in0.0 mm 0.00 in0.0 mm
07:35 PM 53.1°F11.7°C 24.7°F-4.1°C 33% 1.2 mph NNE1.9 kmh NNE 2.3 mph3.7 kmh 29.66 in1004.4 mb - 0.00 in0.0 mm 0.00 in0.0 mm
07:40 PM 52.8°F11.6°C 24.5°F-4.2°C 33% Calm Calm 2.3 mph3.7 kmh 29.66 in1004.4 mb - 0.00 in0.0 mm 0.00 in0.0 mm
07:45 PM 52.7°F11.5°C 24.4°F-4.2°C 33% 1.2 mph N1.9 kmh N 2.3 mph3.7 kmh 29.67 in1004.7 mb - 0.00 in0.0 mm 0.00 in0.0 mm
07:50 PM 52.2°F11.2°C 24.6°F-4.1°C 34% 2.3 mph NNW3.7 kmh NNW 3.5 mph5.6 kmh 29.67 in1004.7 mb - 0.00 in0.0 mm 0.00 in0.0 mm
07:55 PM 52.0°F11.1°C 24.5°F-4.2°C 34% 2.3 mph N3.7 kmh N 2.3 mph3.7 kmh 29.67 in1004.7 mb - 0.00 in0.0 mm 0.00 in0.0 mm
08:00 PM 51.5°F10.8°C 24.0°F-4.4°C 34% 2.3 mph N3.7 kmh N 2.3 mph3.7 kmh 29.67 in1004.7 mb - 0.00 in0.0 mm 0.00 in0.0 mm
08:10 PM 50.7°F10.4°C 23.3°F-4.8°C 34% 1.2 mph NNW1.9 kmh NNW 2.3 mph3.7 kmh 29.67 in1004.7 mb - 0.00 in0.0 mm 0.00 in0.0 mm
08:15 PM 50.7°F10.4°C 24.0°F-4.4°C 35% 1.2 mph NNW1.9 kmh NNW 2.3 mph3.7 kmh 29.67 in1004.7 mb - 0.00 in0.0 mm 0.00 in0.0 mm
08:20 PM 50.4°F10.2°C 23.0°F-5.0°C 34% 1.2 mph NNW1.9 kmh NNW 1.2 mph1.9 kmh 29.67 in1004.7 mb - 0.00 in0.0 mm 0.00 in0.0 mm
08:25 PM 49.8°F9.9°C 23.2°F-4.9°C 35% 1.2 mph NNW1.9 kmh NNW 2.3 mph3.7 kmh 29.67 in1004.7 mb - 0.00 in0.0 mm 0.00 in0.0 mm
08:30 PM 49.5°F9.7°C 23.6°F-4.7°C 36% 1.2 mph NNW1.9 kmh NNW 1.2 mph1.9 kmh 29.67 in1004.7 mb - 0.00 in0.0 mm 0.00 in0.0 mm
08:35 PM 49.3°F9.6°C 23.4°F-4.8°C 36% Calm Calm 1.2 mph1.9 kmh 29.67 in1004.7 mb - 0.00 in0.0 mm 0.00 in0.0 mm
08:40 PM 48.9°F9.4°C 23.1°F-4.9°C 36% 1.2 mph NNW1.9 kmh NNW -- 29.67 in1004.7 mb - 0.00 in0.0 mm 0.00 in0.0 mm
08:45 PM 48.6°F9.2°C 22.8°F-5.1°C 36% Calm Calm 1.2 mph1.9 kmh 29.67 in1004.7 mb - 0.00 in0.0 mm 0.00 in0.0 mm
08:50 PM 48.2°F9.0°C 22.5°F-5.3°C 36% Calm Calm -- 29.67 in1004.7 mb - 0.00 in0.0 mm 0.00 in0.0 mm
08:55 PM 48.0°F8.9°C 22.3°F-5.4°C 36% Calm Calm 1.2 mph1.9 kmh 29.67 in1004.7 mb - 0.00 in0.0 mm 0.00 in0.0 mm
09:00 PM 47.7°F8.7°C 22.0°F-5.6°C 36% Calm Calm -- 29.67 in1004.7 mb - 0.00 in0.0 mm 0.00 in0.0 mm
09:10 PM 47.1°F8.4°C 21.5°F-5.8°C 36% Calm Calm -- 29.67 in1004.7 mb - 0.00 in0.0 mm 0.00 in0.0 mm
09:15 PM 46.9°F8.3°C 21.3°F-5.9°C 36% Calm Calm -- 29.67 in1004.7 mb - 0.00 in0.0 mm 0.00 in0.0 mm
09:20 PM 46.6°F8.1°C 21.7°F-5.7°C 37% Calm Calm -- 29.67 in1004.7 mb - 0.00 in0.0 mm 0.00 in0.0 mm
09:25 PM 46.1°F7.8°C 23.0°F-5.0°C 40% 1.2 mph NNW1.9 kmh NNW 2.3 mph3.7 kmh 29.67 in1004.7 mb - 0.00 in0.0 mm 0.00 in0.0 mm
09:30 PM 46.1°F7.8°C 22.5°F-5.3°C 39% 2.3 mph NNW3.7 kmh NNW 2.3 mph3.7 kmh 29.67 in1004.7 mb - 0.00 in0.0 mm 0.00 in0.0 mm
09:35 PM 45.8°F7.7°C 22.2°F-5.4°C 39% Calm Calm -- 29.67 in1004.7 mb - 0.00 in0.0 mm 0.00 in0.0 mm
09:40 PM 45.7°F7.6°C 21.5°F-5.8°C 38% Calm Calm -- 29.67 in1004.7 mb - 0.00 in0.0 mm 0.00 in0.0 mm
09:45 PM 45.1°F7.3°C 21.6°F-5.8°C 39% 1.2 mph NNW1.9 kmh NNW 1.2 mph1.9 kmh 29.67 in1004.7 mb - 0.00 in0.0 mm 0.00 in0.0 mm
09:50 PM 44.6°F7.0°C 21.1°F-6.1°C 39% 1.2 mph NNW1.9 kmh NNW 2.3 mph3.7 kmh 29.67 in1004.7 mb - 0.00 in0.0 mm 0.00 in0.0 mm
09:55 PM 44.4°F6.9°C 21.6°F-5.8°C 40% 1.2 mph NNW1.9 kmh NNW 1.2 mph1.9 kmh 29.67 in1004.7 mb - 0.00 in0.0 mm 0.00 in0.0 mm
10:00 PM 44.1°F6.7°C 21.3°F-5.9°C 40% 1.2 mph NNW1.9 kmh NNW 2.3 mph3.7 kmh 29.67 in1004.7 mb - 0.00 in0.0 mm 0.00 in0.0 mm
10:10 PM 43.7°F6.5°C 21.5°F-5.8°C 41% 1.2 mph NNW1.9 kmh NNW 1.2 mph1.9 kmh 29.67 in1004.7 mb - 0.00 in0.0 mm 0.00 in0.0 mm
10:15 PM 43.5°F6.4°C 21.3°F-5.9°C 41% Calm Calm -- 29.68 in1005.1 mb - 0.00 in0.0 mm 0.00 in0.0 mm
10:20 PM 43.3°F6.3°C 21.2°F-6.0°C 41% Calm Calm -- 29.68 in1005.1 mb - 0.00 in0.0 mm 0.00 in0.0 mm
10:25 PM 43.2°F6.2°C 21.0°F-6.1°C 41% Calm Calm -- 29.68 in1005.1 mb - 0.00 in0.0 mm 0.00 in0.0 mm
10:30 PM 42.8°F6.0°C 21.3°F-5.9°C 42% 2.3 mph NNW3.7 kmh NNW 2.3 mph3.7 kmh 29.68 in1005.1 mb - 0.00 in0.0 mm 0.00 in0.0 mm
10:35 PM 42.6°F5.9°C 21.7°F-5.7°C 43% 2.3 mph NNW3.7 kmh NNW 2.3 mph3.7 kmh 29.68 in1005.1 mb - 0.00 in0.0 mm 0.00 in0.0 mm
10:40 PM 42.3°F5.7°C 21.9°F-5.6°C 44% 2.3 mph NNW3.7 kmh NNW 2.3 mph3.7 kmh 29.68 in1005.1 mb - 0.00 in0.0 mm 0.00 in0.0 mm
10:45 PM 42.1°F5.6°C 21.7°F-5.7°C 44% 1.2 mph NNW1.9 kmh NNW 2.3 mph3.7 kmh 29.67 in1004.7 mb - 0.00 in0.0 mm 0.00 in0.0 mm
10:50 PM 41.7°F5.4°C 21.4°F-5.9°C 44% 1.2 mph NNW1.9 kmh NNW 2.3 mph3.7 kmh 29.67 in1004.7 mb - 0.00 in0.0 mm 0.00 in0.0 mm
10:55 PM 41.5°F5.3°C 21.8°F-5.7°C 45% 1.2 mph NNW1.9 kmh NNW 1.2 mph1.9 kmh 29.67 in1004.7 mb - 0.00 in0.0 mm 0.00 in0.0 mm
11:00 PM 41.5°F5.3°C 22.3°F-5.4°C 46% 1.2 mph NNW1.9 kmh NNW 2.3 mph3.7 kmh 29.68 in1005.1 mb - 0.00 in0.0 mm 0.00 in0.0 mm
11:10 PM 41.2°F5.1°C 22.5°F-5.3°C 47% 2.3 mph NNW3.7 kmh NNW 2.3 mph3.7 kmh 29.68 in1005.1 mb - 0.00 in0.0 mm 0.00 in0.0 mm
11:15 PM 41.0°F5.0°C 22.8°F-5.1°C 48% 3.5 mph NNW5.6 kmh NNW 3.5 mph5.6 kmh 29.67 in1004.7 mb - 0.00 in0.0 mm 0.00 in0.0 mm
11:20 PM 41.5°F5.3°C 23.8°F-4.6°C 49% 2.3 mph NNW3.7 kmh NNW 2.3 mph3.7 kmh 29.67 in1004.7 mb - 0.00 in0.0 mm 0.00 in0.0 mm
11:25 PM 41.6°F5.3°C 23.3°F-4.8°C 48% 2.3 mph NNW3.7 kmh NNW 2.3 mph3.7 kmh 29.67 in1004.7 mb - 0.00 in0.0 mm 0.00 in0.0 mm
11:30 PM 41.3°F5.2°C 22.5°F-5.3°C 47% 1.2 mph NNW1.9 kmh NNW 2.3 mph3.7 kmh 29.68 in1005.1 mb - 0.00 in0.0 mm 0.00 in0.0 mm
11:35 PM 40.8°F4.9°C 22.1°F-5.5°C 47% 1.2 mph NNW1.9 kmh NNW 1.2 mph1.9 kmh 29.68 in1005.1 mb - 0.00 in0.0 mm 0.00 in0.0 mm
11:40 PM 40.6°F4.8°C 22.5°F-5.3°C 48% 1.2 mph NNW1.9 kmh NNW 2.3 mph3.7 kmh 29.68 in1005.1 mb - 0.00 in0.0 mm 0.00 in0.0 mm
11:45 PM 40.5°F4.7°C 22.8°F-5.1°C 49% 1.2 mph NNW1.9 kmh NNW 1.2 mph1.9 kmh 29.68 in1005.1 mb - 0.00 in0.0 mm 0.00 in0.0 mm
11:50 PM 40.3°F4.6°C 22.1°F-5.5°C 48% 1.2 mph NNW1.9 kmh NNW 2.3 mph3.7 kmh 29.68 in1005.1 mb - 0.00 in0.0 mm 0.00 in0.0 mm
11:55 PM 40.3°F4.6°C 22.1°F-5.5°C 48% Calm Calm -- 29.68 in1005.1 mb - 0.00 in0.0 mm 0.00 in0.0 mm